Hauptseite
METAR-TAF:

METAR-TAF

Flughäfen :

Sarzana, Italien

Militärflugplatz Sarzana-Luni

Breite: 44-05N, Länge: 009-59E, Höhe: 9 m

Beobachtung

Neuester Wetterbericht von vor 4 Stunden und 5 Minuten, um 10:55 UTC
Wind 8 kt aus Südost
Temperatur 13°C
Luftfeuchtigkeit 82%
Luftdruck 1010 hPa
Sichtweite 10 km oder mehr
Aufgelockert bewölkt in der Höhe von 2000 ft

METAR: LIQW 191055Z 13008KT 9999 SCT020 13/10 Q1010 RMK BKN SCT200 VIS MIN 9999 WIND THR18 13006KT BLU

Zeit: 16:00 (15:00 UTC)


TAF: fehlend

Wetterbeobachtungen und Prognosen von mehr als 4000 Flughäfen (METAR und TAF Bericht).

Die verfügbaren Stationen werden durch gelbe und rote Markierungen auf der Karte dargestellt.

Führen Sie die Maus auf sie, um den Namen der Station zu sehen.

Darauf klicken, um die Beobachtung von Wetterbeobachtungen und Prognosen zu sehen.

Um die Karte zu ändern : klicken Sie auf den grünen Tasten mit einem schwarzen Kreuz Zum Vergrößern, auf den grünen Button mit einem Gedankenstrich zu verkleinern, oder auf die grünen Pfeile für benachbarte Karten.


METAR-TAF: